createdAt,value
2022-08-20T02:45:03.602Z,81.03
2022-08-20T02:46:03.669Z,80.83
2022-08-20T02:47:03.544Z,81.64
2022-08-20T02:48:04.910Z,81.90
2022-08-20T02:49:04.922Z,82.21
2022-08-20T02:50:07.978Z,82.21
2022-08-20T02:51:04.696Z,82.01
2022-08-20T02:52:04.709Z,81.50
2022-08-20T02:53:04.715Z,81.30
2022-08-20T02:54:04.647Z,81.30
2022-08-20T02:55:04.671Z,80.59
2022-08-20T02:56:04.622Z,80.29
2022-08-20T02:57:04.597Z,80.39
2022-08-20T02:58:04.607Z,81.30
2022-08-20T02:59:04.725Z,81.20
2022-08-20T03:00:04.584Z,81.10
2022-08-20T03:01:04.694Z,81.84
2022-08-20T03:02:04.556Z,82.35
2022-08-20T03:03:04.561Z,82.55
2022-08-20T03:04:04.555Z,82.21
2022-08-20T03:05:04.543Z,82.01
2022-08-20T03:06:04.567Z,80.90
2022-08-20T03:07:04.561Z,81.10
2022-08-20T03:08:04.575Z,80.45
2022-08-20T03:09:04.524Z,79.74
2022-08-20T03:10:04.506Z,79.85
2022-08-20T03:11:04.582Z,80.35
2022-08-20T03:12:04.442Z,80.35
2022-08-20T03:13:04.454Z,80.55
2022-08-20T03:14:04.500Z,80.65
2022-08-20T03:15:04.507Z,80.96
2022-08-20T03:16:04.443Z,80.55
2022-08-20T03:17:04.437Z,80.76
2022-08-20T03:18:04.385Z,80.76
2022-08-20T03:19:04.433Z,80.51
2022-08-20T03:20:05.269Z,80.35
2022-08-20T03:21:04.365Z,80.72
2022-08-20T03:22:04.340Z,80.25
2022-08-20T03:23:04.361Z,80.05
2022-08-20T03:24:04.329Z,79.85
2022-08-20T03:25:04.348Z,80.85
2022-08-20T03:26:04.309Z,81.26
2022-08-20T03:27:04.337Z,81.36
2022-08-20T03:28:04.267Z,80.85
2022-08-20T03:29:04.400Z,81.16
2022-08-20T03:30:04.294Z,81.36
2022-08-20T03:31:04.264Z,81.05
2022-08-20T03:32:07.681Z,81.26
2022-08-20T03:33:05.374Z,81.05
2022-08-20T03:34:04.293Z,81.16
2022-08-20T03:35:04.214Z,81.12
2022-08-20T03:36:04.223Z,81.12
2022-08-20T03:37:04.232Z,81.36
2022-08-20T03:38:04.281Z,81.26
2022-08-20T03:39:04.208Z,80.96
2022-08-20T03:40:04.242Z,80.76
2022-08-20T03:41:04.181Z,81.96
2022-08-20T03:42:04.124Z,82.27
2022-08-20T03:43:04.159Z,81.87
2022-08-20T03:44:04.165Z,82.07
2022-08-20T03:45:04.186Z,82.07
2022-08-20T03:46:04.145Z,82.27
2022-08-20T03:47:04.104Z,82.37
2022-08-20T03:48:04.103Z,82.21
2022-08-20T03:49:04.103Z,83.36
2022-08-20T03:50:04.166Z,84.17
2022-08-20T03:51:04.077Z,84.23
2022-08-20T03:52:04.125Z,84.37
2022-08-20T03:53:04.023Z,84.23
2022-08-20T03:54:04.058Z,84.27
2022-08-20T03:55:04.038Z,84.03
2022-08-20T03:56:04.026Z,83.82
2022-08-20T03:57:04.047Z,83.52
2022-08-20T03:58:05.012Z,83.32
2022-08-20T03:59:04.126Z,83.32
2022-08-20T04:00:03.969Z,82.31
2022-08-20T04:01:04.039Z,81.87
2022-08-20T04:02:04.034Z,81.96
2022-08-20T04:03:03.904Z,82.07
2022-08-20T04:04:03.998Z,82.27
2022-08-20T04:05:03.927Z,82.07
2022-08-20T04:06:03.998Z,82.27
2022-08-20T04:07:03.911Z,81.82
2022-08-20T04:08:03.934Z,81.73
2022-08-20T04:09:03.926Z,81.42
2022-08-20T04:10:03.861Z,80.21
2022-08-20T04:11:03.990Z,81.12
2022-08-20T04:12:03.830Z,81.32
2022-08-20T04:13:03.878Z,80.72
2022-08-20T04:14:03.818Z,80.78
2022-08-20T04:15:03.826Z,80.58
2022-08-20T04:16:03.817Z,80.78
2022-08-20T04:17:03.795Z,80.07
2022-08-20T04:18:03.833Z,80.07
2022-08-20T04:19:03.791Z,79.67
2022-08-20T04:20:03.793Z,79.67
2022-08-20T04:21:03.752Z,80.07
2022-08-20T04:22:03.733Z,79.63
2022-08-20T04:23:03.757Z,79.53
2022-08-20T04:24:03.747Z,79.93
2022-08-20T04:25:03.767Z,80.33
2022-08-20T04:26:03.685Z,80.44
2022-08-20T04:27:03.742Z,79.43
2022-08-20T04:28:03.675Z,79.73
2022-08-20T04:29:03.751Z,78.69
2022-08-20T04:30:03.724Z,78.72
2022-08-20T04:31:03.609Z,78.83
2022-08-20T04:32:05.759Z,78.89
2022-08-20T04:33:03.661Z,78.83
2022-08-20T04:34:03.646Z,78.83
2022-08-20T04:35:03.617Z,78.79
2022-08-20T04:36:03.732Z,78.72
2022-08-20T04:37:03.593Z,78.92
2022-08-20T04:38:03.559Z,78.79
2022-08-20T04:39:03.605Z,78.79
2022-08-20T04:40:03.568Z,78.12
2022-08-20T04:41:03.555Z,78.69
2022-08-20T04:42:03.517Z,78.89
2022-08-20T04:43:03.552Z,78.99
2022-08-20T04:44:03.537Z,78.92
2022-08-20T04:45:36.273Z,79.39
2022-08-20T04:46:03.566Z,79.53
2022-08-20T04:47:03.609Z,79.29
2022-08-20T04:48:03.474Z,79.73
2022-08-20T04:49:03.486Z,79.90
2022-08-20T04:50:03.564Z,80.04
2022-08-20T04:51:36.000Z,80.24
2022-08-20T04:52:03.632Z,80.74
2022-08-20T04:53:03.626Z,80.33
2022-08-20T04:54:03.444Z,80.13
2022-08-20T04:55:03.425Z,79.90
2022-08-20T04:56:03.411Z,79.73
2022-08-20T04:57:03.411Z,79.49
2022-08-20T04:58:03.377Z,79.60
2022-08-20T04:59:03.408Z,79.60
2022-08-20T05:00:03.368Z,80.24
2022-08-20T05:01:03.381Z,80.54
2022-08-20T05:02:03.325Z,80.24
2022-08-20T05:03:04.359Z,80.74
2022-08-20T05:04:03.437Z,80.33
2022-08-20T05:05:03.306Z,80.94
2022-08-20T05:06:03.286Z,80.33
2022-08-20T05:07:03.254Z,80.30
2022-08-20T05:08:03.278Z,80.50
2022-08-20T05:09:03.346Z,80.64
2022-08-20T05:10:03.251Z,80.70
2022-08-20T05:11:24.140Z,80.60
2022-08-20T05:12:04.184Z,80.60
2022-08-20T05:13:03.254Z,80.90
2022-08-20T05:14:03.273Z,81.04
2022-08-20T05:15:03.200Z,80.90
2022-08-20T05:16:03.290Z,80.90
2022-08-20T05:17:03.179Z,80.90
2022-08-20T05:18:03.180Z,81.65
2022-08-20T05:19:03.180Z,81.85
2022-08-20T05:20:03.208Z,82.15
2022-08-20T05:21:03.122Z,82.50
2022-08-20T05:22:03.113Z,81.79
2022-08-20T05:23:03.140Z,81.89
2022-08-20T05:24:03.120Z,82.39
2022-08-20T05:25:03.098Z,82.50
2022-08-20T05:26:03.057Z,82.90
2022-08-20T05:27:03.081Z,82.79
2022-08-20T05:28:03.085Z,82.19
2022-08-20T05:29:03.085Z,81.85
2022-08-20T05:30:03.081Z,82.19
2022-08-20T05:31:03.044Z,82.35
2022-08-20T05:32:03.784Z,82.25
2022-08-20T05:33:02.999Z,82.25
2022-08-20T05:34:03.694Z,81.75
2022-08-20T05:35:02.982Z,81.65
2022-08-20T05:36:03.013Z,82.25
2022-08-20T05:37:02.932Z,81.85
2022-08-20T05:38:02.955Z,82.05
2022-08-20T05:39:02.963Z,82.21
2022-08-20T05:40:02.993Z,81.45
2022-08-20T05:41:02.935Z,80.64
2022-08-20T05:42:02.900Z,81.15
2022-08-20T05:43:02.889Z,80.60
2022-08-20T05:44:02.894Z,80.80
2022-08-20T05:45:02.838Z,80.60
2022-08-20T05:46:03.964Z,80.80
2022-08-20T05:47:04.152Z,80.70
2022-08-20T05:48:03.518Z,80.50
2022-08-20T05:49:02.820Z,80.60
2022-08-20T05:50:02.854Z,80.40
2022-08-20T05:51:02.841Z,80.80
2022-08-20T05:52:02.799Z,80.50
2022-08-20T05:53:03.351Z,80.70
2022-08-20T05:54:02.823Z,80.57
2022-08-20T05:55:02.831Z,80.97
2022-08-20T05:56:02.805Z,80.90
2022-08-20T05:57:02.771Z,81.17
2022-08-20T05:58:03.767Z,80.77
2022-08-20T05:59:02.772Z,81.01
2022-08-20T06:00:02.761Z,80.97
2022-08-20T06:01:02.801Z,80.77
2022-08-20T06:02:02.713Z,80.46
2022-08-20T06:03:02.715Z,80.77
2022-08-20T06:04:02.728Z,80.46
2022-08-20T06:05:02.698Z,81.07
2022-08-20T06:06:02.665Z,81.10
2022-08-20T06:07:02.783Z,81.71
2022-08-20T06:08:07.280Z,81.91
2022-08-20T06:09:03.798Z,81.95
2022-08-20T06:12:12.839Z,86.08
2022-08-20T06:13:14.048Z,86.79
2022-08-20T06:14:12.869Z,87.40
2022-08-20T06:15:13.994Z,88.50
2022-08-20T06:16:14.063Z,89.25
2022-08-20T06:17:15.255Z,89.75
2022-08-20T06:18:28.628Z,91.27
2022-08-20T06:19:15.014Z,89.95
2022-08-20T06:20:14.769Z,90.01
2022-08-20T06:24:00.636Z,90.72
2022-08-20T06:24:56.682Z,91.47
2022-08-20T06:27:49.343Z,93.38
2022-08-20T06:30:39.511Z,93.38
2022-08-20T06:33:57.067Z,93.19
2022-08-20T06:36:48.518Z,92.90
2022-08-20T06:37:48.584Z,92.14
2022-08-20T06:38:48.606Z,91.64
2022-08-20T06:39:48.555Z,91.64
2022-08-20T06:40:48.501Z,91.54
2022-08-20T06:41:48.475Z,91.30
2022-08-20T06:42:49.028Z,90.69
2022-08-20T06:43:48.439Z,90.79
2022-08-20T06:44:49.666Z,89.59
2022-08-20T06:45:49.623Z,89.79
2022-08-20T06:46:50.255Z,89.59
2022-08-20T06:47:49.763Z,89.44
2022-08-20T06:48:49.637Z,89.18
2022-08-20T06:49:49.650Z,88.88
2022-08-20T06:50:49.536Z,88.58
2022-08-20T06:51:51.935Z,88.54
2022-08-20T06:52:52.711Z,88.38
2022-08-20T06:53:49.578Z,88.34
2022-08-20T06:54:49.573Z,88.94
2022-08-20T06:55:49.481Z,89.69
2022-08-20T06:56:50.090Z,89.79
2022-08-20T06:57:49.471Z,89.69
2022-08-20T06:58:49.794Z,89.75
2022-08-20T06:59:54.360Z,89.75
2022-08-20T07:00:50.529Z,89.14
2022-08-20T07:01:49.497Z,89.24
2022-08-20T07:02:49.549Z,89.04
2022-08-20T07:03:54.385Z,89.00
2022-08-20T07:04:50.458Z,88.70
2022-08-20T07:05:49.464Z,88.39
2022-08-20T07:06:49.475Z,88.39
2022-08-20T07:07:49.426Z,88.29
2022-08-20T07:08:49.402Z,89.10
2022-08-20T07:09:49.348Z,88.79
2022-08-20T07:10:49.391Z,88.19
2022-08-20T07:11:49.340Z,88.49
2022-08-20T07:12:49.435Z,88.05
2022-08-20T07:13:49.796Z,88.75
2022-08-20T07:14:49.351Z,88.45
2022-08-20T07:15:49.293Z,89.06
2022-08-20T07:16:49.286Z,89.76
2022-08-20T07:17:49.324Z,89.56
2022-08-20T07:18:49.292Z,89.46
2022-08-20T07:19:49.261Z,89.46
2022-08-20T07:20:49.265Z,89.92
2022-08-20T07:21:49.307Z,89.01
2022-08-20T07:22:49.343Z,87.81
2022-08-20T07:23:49.278Z,86.80
2022-08-20T07:24:49.333Z,86.56
2022-08-20T07:25:50.136Z,86.26
2022-08-20T07:26:49.218Z,87.10
2022-08-20T07:27:49.193Z,86.76
2022-08-20T07:28:49.264Z,86.66
2022-08-20T07:29:49.206Z,87.12
2022-08-20T07:30:56.914Z,87.02
2022-08-20T07:31:50.096Z,86.72
2022-08-20T07:32:49.127Z,86.52
2022-08-20T07:33:50.386Z,86.22
2022-08-20T07:34:49.138Z,85.58
2022-08-20T07:35:49.115Z,85.58
2022-08-20T07:36:49.712Z,85.88
2022-08-20T07:37:49.111Z,86.78
2022-08-20T07:38:49.079Z,86.88
2022-08-20T07:39:49.131Z,86.28
2022-08-20T07:40:49.221Z,85.97
2022-08-20T07:41:56.416Z,85.53
2022-08-20T07:42:50.107Z,85.63
2022-08-20T07:43:49.092Z,85.24
2022-08-20T07:44:49.022Z,84.13
2022-08-20T07:45:49.909Z,83.89
2022-08-20T07:52:52.376Z,82.55
2022-08-20T07:53:52.433Z,83.05
2022-08-20T07:54:52.383Z,82.55
2022-08-20T07:55:58.887Z,83.35
2022-08-20T07:56:52.361Z,82.75
2022-08-20T07:59:19.237Z,82.71
2022-08-20T08:01:46.169Z,83.19
2022-08-20T08:02:46.231Z,85.19
2022-08-20T08:03:50.030Z,87.30
2022-08-20T08:04:47.913Z,86.40
2022-08-20T08:05:47.247Z,87.24
2022-08-20T08:06:47.209Z,87.90
2022-08-20T08:07:47.340Z,87.90
2022-08-20T08:08:47.240Z,86.30
2022-08-20T08:09:47.191Z,85.60
2022-08-20T08:10:47.186Z,84.89
2022-08-20T08:11:47.817Z,85.30
2022-08-20T08:12:48.159Z,84.45
2022-08-20T08:13:47.151Z,83.25
2022-08-20T08:14:47.296Z,84.01
2022-08-20T08:15:47.162Z,81.47
2022-08-20T08:16:47.179Z,81.63
2022-08-20T08:17:47.109Z,81.23
2022-08-20T08:18:47.157Z,80.83
2022-08-20T08:19:47.121Z,80.29
2022-08-20T08:20:47.176Z,81.19
2022-08-20T08:21:47.895Z,82.69
2022-08-20T08:22:47.057Z,81.56
2022-08-20T08:23:47.107Z,79.85
2022-08-20T08:24:57.306Z,77.95
2022-08-20T08:25:48.049Z,78.29
2022-08-20T08:26:47.034Z,80.35
2022-08-20T08:27:47.064Z,78.96
2022-08-20T08:28:47.362Z,77.79
2022-08-20T08:29:47.135Z,78.09
2022-08-20T08:30:47.116Z,79.69
2022-08-20T08:31:47.026Z,80.09
2022-08-20T08:32:47.019Z,81.39
2022-08-20T08:33:46.989Z,79.99
2022-08-20T08:34:46.994Z,79.85
2022-08-20T08:35:46.932Z,78.75
2022-08-20T08:36:46.946Z,79.32
2022-08-20T08:37:46.956Z,77.72
2022-08-20T08:38:46.985Z,76.48
2022-08-20T08:39:46.953Z,77.18
2022-08-20T08:40:46.873Z,76.38
2022-08-20T08:41:46.899Z,76.95
2022-08-20T08:42:46.884Z,75.74
2022-08-20T08:43:46.911Z,75.55
2022-08-20T08:44:46.939Z,75.51
2022-08-20T08:45:46.877Z,75.35
2022-08-20T08:46:46.848Z,75.74
2022-08-20T08:47:46.988Z,75.91
2022-08-20T08:48:46.820Z,75.91
2022-08-20T08:49:46.935Z,74.65
2022-08-20T08:50:54.038Z,75.05
2022-08-20T08:51:48.834Z,74.81
2022-08-20T08:52:46.808Z,73.82
2022-08-20T08:53:46.758Z,73.91
2022-08-20T08:54:46.734Z,73.75
2022-08-20T08:55:46.755Z,74.15
2022-08-20T08:56:49.583Z,73.85
2022-08-20T08:57:46.715Z,75.05
2022-08-20T08:58:46.759Z,76.45
2022-08-20T09:00:02.438Z,77.44
2022-08-20T09:00:57.484Z,77.25
2022-08-20T09:01:54.541Z,75.25
2022-08-20T09:02:47.982Z,75.45
2022-08-20T09:03:46.652Z,75.85
2022-08-20T09:04:46.698Z,75.45
2022-08-20T09:05:46.993Z,71.75
2022-08-20T09:06:50.427Z,69.86
2022-08-20T09:07:48.607Z,71.79
2022-08-20T09:08:46.590Z,71.66
2022-08-20T09:09:46.678Z,71.66
2022-08-20T09:10:46.619Z,71.66
2022-08-20T09:11:46.571Z,72.52
2022-08-20T09:12:47.814Z,71.62
2022-08-20T09:13:46.554Z,72.32
2022-08-20T09:14:46.700Z,73.22
2022-08-20T09:15:46.540Z,72.72
2022-08-20T09:16:52.478Z,72.12
2022-08-20T09:17:46.603Z,72.68
2022-08-20T09:18:46.501Z,72.28
2022-08-20T09:19:46.639Z,70.69
2022-08-20T09:20:46.501Z,71.69
2022-08-20T09:21:47.192Z,72.58
2022-08-20T09:22:46.511Z,72.75
2022-08-20T09:23:46.457Z,70.92
2022-08-20T09:24:46.473Z,71.02
2022-08-20T09:25:46.500Z,69.92
2022-08-20T09:26:46.480Z,70.32
2022-08-20T09:27:46.387Z,73.11
2022-08-20T09:28:52.096Z,73.91
2022-08-20T09:29:49.227Z,73.18
2022-08-20T09:30:46.451Z,72.05
2022-08-20T09:31:46.539Z,69.82
2022-08-20T09:32:46.411Z,68.66
2022-08-20T09:33:46.485Z,68.46
2022-08-20T09:34:46.384Z,69.23
2022-08-20T09:35:46.377Z,68.43
2022-08-20T09:36:46.451Z,65.91
2022-08-20T09:37:46.365Z,66.01
2022-08-20T09:38:46.320Z,65.19
2022-08-20T09:39:46.327Z,62.83
2022-08-20T09:40:46.886Z,65.12
2022-08-20T09:41:46.262Z,64.22
2022-08-20T09:42:46.362Z,63.13
2022-08-20T09:43:46.294Z,64.42
2022-08-20T09:44:46.356Z,64.62
2022-08-20T09:45:46.282Z,63.03
2022-08-20T09:46:46.237Z,63.23
2022-08-20T09:47:56.262Z,64.92
2022-08-20T09:48:47.235Z,63.13
2022-08-20T09:49:47.320Z,63.43
2022-08-20T09:50:46.216Z,64.00
2022-08-20T09:51:46.193Z,63.43
2022-08-20T09:52:46.161Z,64.42
2022-08-20T09:53:46.139Z,63.92
2022-08-20T09:54:46.732Z,64.12
2022-08-20T09:55:46.211Z,63.92
2022-08-20T09:56:46.131Z,63.63
2022-08-20T09:57:46.117Z,63.13
2022-08-20T09:58:46.137Z,63.00
2022-08-20T09:59:46.147Z,63.10
2022-08-20T10:00:46.097Z,62.67
2022-08-20T10:01:46.128Z,62.80
2022-08-20T10:02:46.052Z,61.11
2022-08-20T10:03:46.853Z,61.94
2022-08-20T10:04:46.128Z,62.13
2022-08-20T10:05:46.072Z,61.71
2022-08-20T10:06:46.097Z,62.10
2022-08-20T10:07:46.025Z,62.37
2022-08-20T10:08:46.037Z,60.78
2022-08-20T10:09:46.052Z,63.20
2022-08-20T10:10:46.048Z,63.20
2022-08-20T10:11:46.023Z,62.21
2022-08-20T10:12:45.952Z,62.43
2022-08-20T10:13:46.041Z,62.93
2022-08-20T10:14:45.992Z,63.03
2022-08-20T10:15:46.061Z,62.66
2022-08-20T10:16:45.973Z,63.56
2022-08-20T10:17:46.876Z,63.16
2022-08-20T10:18:45.934Z,63.56
2022-08-20T10:19:46.695Z,63.46
2022-08-20T10:20:45.900Z,63.66
2022-08-20T10:21:46.047Z,63.43
2022-08-20T10:22:45.904Z,63.23
2022-08-20T10:23:45.899Z,61.83
2022-08-20T10:24:45.898Z,63.20
2022-08-20T10:25:45.827Z,60.78
2022-08-20T10:26:45.927Z,60.49
2022-08-20T10:27:45.831Z,59.19
2022-08-20T10:28:45.965Z,60.49
2022-08-20T10:29:46.994Z,60.46
2022-08-20T10:30:46.825Z,58.37
2022-08-20T10:31:45.898Z,57.48
2022-08-20T10:32:45.806Z,59.14
2022-08-20T10:33:46.722Z,57.15
2022-08-20T10:34:45.791Z,56.36
2022-08-20T10:35:45.782Z,56.46
2022-08-20T10:36:45.770Z,57.45
2022-08-20T10:37:45.762Z,58.02
2022-08-20T10:38:45.758Z,55.54
2022-08-20T10:39:46.777Z,56.13
2022-08-20T10:40:52.272Z,56.11
2022-08-20T10:41:45.771Z,56.04
2022-08-20T10:42:45.694Z,55.54
2022-08-20T10:43:45.714Z,55.81
2022-08-20T10:44:45.732Z,54.75
2022-08-20T10:45:45.886Z,55.81
2022-08-20T10:46:45.679Z,55.58
2022-08-20T10:47:45.714Z,55.58
2022-08-20T10:48:45.744Z,56.18
2022-08-20T10:49:45.855Z,55.49
2022-08-20T10:50:45.617Z,54.37
2022-08-20T10:51:45.628Z,54.94
2022-08-20T10:52:45.795Z,54.14
2022-08-20T10:53:45.683Z,54.44
2022-08-20T10:54:45.766Z,54.24
2022-08-20T10:55:45.655Z,54.67
2022-08-20T10:56:45.585Z,54.67
2022-08-20T10:57:45.549Z,55.46
2022-08-20T10:58:45.530Z,54.84
2022-08-20T10:59:45.620Z,54.67
2022-08-20T11:00:45.701Z,54.57
2022-08-20T11:01:46.473Z,54.47
2022-08-20T11:02:45.495Z,54.07
2022-08-20T11:03:45.542Z,54.47
2022-08-20T11:04:45.783Z,54.96
2022-08-20T11:05:45.499Z,55.46
2022-08-20T11:07:18.366Z,54.77
2022-08-20T11:09:48.025Z,53.28
2022-08-20T11:09:49.899Z,54.37
2022-08-20T11:10:53.508Z,54.96
2022-08-20T11:13:39.811Z,55.24
2022-08-20T11:14:40.803Z,55.07
2022-08-20T11:15:41.023Z,56.16
2022-08-20T11:16:40.967Z,55.64
2022-08-20T11:17:40.899Z,56.34
2022-08-20T11:18:46.331Z,56.53
2022-08-20T11:19:42.952Z,55.66
2022-08-20T11:20:40.909Z,55.64
2022-08-20T11:21:41.595Z,55.15
2022-08-20T11:22:40.883Z,55.94
2022-08-20T11:23:40.935Z,56.06
2022-08-20T11:24:40.905Z,55.54
2022-08-20T11:25:40.831Z,55.36
2022-08-20T11:26:40.846Z,55.19
2022-08-20T11:27:40.899Z,55.79
2022-08-20T11:28:40.797Z,55.89
2022-08-20T11:29:40.832Z,55.49
2022-08-20T11:30:41.795Z,56.02
2022-08-20T11:31:40.766Z,56.71
2022-08-20T11:32:40.761Z,56.12
2022-08-20T11:33:40.731Z,56.71
2022-08-20T11:34:40.738Z,56.61
2022-08-20T11:35:43.463Z,55.91
2022-08-20T11:36:42.872Z,55.72
2022-08-20T11:37:40.789Z,55.82
2022-08-20T11:38:40.714Z,56.61
2022-08-20T11:39:41.902Z,56.51
2022-08-20T11:40:41.697Z,57.90
2022-08-20T11:41:40.725Z,57.51
2022-08-20T11:42:58.410Z,56.44
2022-08-20T11:43:54.994Z,57.70
2022-08-20T11:44:41.713Z,57.73
2022-08-20T11:45:40.613Z,58.13
2022-08-20T11:46:40.674Z,57.14
2022-08-20T11:47:40.660Z,57.93
2022-08-20T11:48:40.632Z,56.94
2022-08-20T11:49:40.727Z,57.34
2022-08-20T11:50:40.585Z,57.83
2022-08-20T11:51:49.362Z,57.46
2022-08-20T11:52:41.557Z,58.06
2022-08-20T11:53:40.640Z,58.56
2022-08-20T11:54:40.658Z,58.95
2022-08-20T11:55:40.559Z,59.25
2022-08-20T11:56:40.650Z,59.45
2022-08-20T11:57:41.666Z,60.17
2022-08-20T11:58:40.564Z,58.98
2022-08-20T11:59:40.533Z,58.75
2022-08-20T12:00:40.665Z,60.08
2022-08-20T12:01:40.538Z,60.17
2022-08-20T12:02:41.577Z,60.57
2022-08-20T12:03:40.550Z,60.08
2022-08-20T12:04:40.549Z,59.01
2022-08-20T12:05:40.509Z,60.60
2022-08-20T12:06:40.447Z,60.93
2022-08-20T12:07:40.463Z,61.03
2022-08-20T12:08:40.451Z,61.23
2022-08-20T12:09:43.029Z,62.05
2022-08-20T12:10:41.454Z,62.26
2022-08-20T12:11:40.470Z,61.46
2022-08-20T12:12:40.667Z,62.15
2022-08-20T12:13:48.020Z,62.05
2022-08-20T12:14:40.451Z,63.08
2022-08-20T12:15:40.353Z,63.28
2022-08-20T12:16:40.347Z,64.48
2022-08-20T12:17:40.386Z,63.88
2022-08-20T12:18:40.322Z,65.24
2022-08-20T12:19:40.597Z,65.17
2022-08-20T12:20:40.318Z,66.87
2022-08-20T12:21:40.320Z,67.07
2022-08-20T12:22:40.316Z,66.97
2022-08-20T12:23:40.308Z,69.29
2022-08-20T12:24:40.518Z,68.96
2022-08-20T12:25:40.337Z,69.69
2022-08-20T12:26:40.341Z,69.69
2022-08-20T12:27:40.293Z,70.19
2022-08-20T12:28:40.557Z,71.72
2022-08-20T12:29:40.215Z,71.92
2022-08-20T12:30:40.273Z,71.12
2022-08-20T12:31:40.227Z,73.82
2022-08-20T12:32:40.210Z,73.58
2022-08-20T12:33:40.197Z,73.38
2022-08-20T12:34:40.191Z,74.74
2022-08-20T12:35:40.211Z,73.44
2022-08-20T12:36:40.192Z,73.35
2022-08-20T12:37:40.230Z,74.11
2022-08-20T12:38:40.138Z,74.01
2022-08-20T12:39:40.151Z,72.61
2022-08-20T12:40:40.100Z,71.72
2022-08-20T12:41:40.156Z,71.69
2022-08-20T12:42:40.184Z,72.28
2022-08-20T12:43:40.112Z,70.79
2022-08-20T12:44:40.121Z,69.56
2022-08-20T12:45:40.055Z,71.55
2022-08-20T12:46:40.142Z,70.72
2022-08-20T12:47:40.092Z,69.43
2022-08-20T12:48:39.981Z,69.49
2022-08-20T12:49:40.018Z,67.21
2022-08-20T12:50:40.032Z,67.97
2022-08-20T12:51:40.312Z,69.43
2022-08-20T12:52:39.997Z,67.11
2022-08-20T12:53:39.983Z,65.62
2022-08-20T12:54:39.957Z,64.23
2022-08-20T12:55:39.966Z,65.12
2022-08-20T12:56:39.954Z,64.66
2022-08-20T12:57:39.929Z,64.46
2022-08-20T12:58:40.042Z,65.45
2022-08-20T12:59:39.882Z,66.08
2022-08-20T13:00:39.968Z,66.67
2022-08-20T13:01:39.969Z,66.67
2022-08-20T13:02:39.907Z,66.78
2022-08-20T13:03:43.157Z,67.57
2022-08-20T13:04:40.863Z,67.87
2022-08-20T13:05:40.828Z,70.45
2022-08-20T13:06:39.889Z,68.76
2022-08-20T13:07:39.947Z,67.87
2022-08-20T13:08:39.794Z,66.67
2022-08-20T13:09:40.384Z,66.01
2022-08-20T13:10:40.466Z,66.71
2022-08-20T13:11:39.779Z,64.15
2022-08-20T13:12:39.855Z,64.15
2022-08-20T13:13:39.793Z,63.16
2022-08-20T13:14:39.881Z,63.56
2022-08-20T13:15:39.770Z,64.65
2022-08-20T13:16:39.703Z,65.38
2022-08-20T13:17:40.531Z,67.04
2022-08-20T13:18:39.749Z,66.05
2022-08-20T13:19:39.779Z,66.84
2022-08-20T13:20:39.721Z,67.83
2022-08-20T13:21:39.701Z,66.94
2022-08-20T13:22:39.760Z,67.30
2022-08-20T13:23:39.741Z,65.78
2022-08-20T13:24:40.474Z,66.58
2022-08-20T13:25:39.685Z,66.44
2022-08-20T13:26:39.607Z,65.82
2022-08-20T13:27:39.819Z,65.52
2022-08-20T13:28:39.760Z,64.30
2022-08-20T13:29:39.640Z,63.60
2022-08-20T13:30:39.637Z,64.20
2022-08-20T13:31:39.597Z,64.30
2022-08-20T13:32:39.579Z,64.10
2022-08-20T13:33:39.638Z,63.21
2022-08-20T13:34:39.553Z,63.08
2022-08-20T13:35:39.650Z,62.55
2022-08-20T13:36:39.542Z,60.64
2022-08-20T13:37:39.572Z,60.64
2022-08-20T13:38:39.512Z,60.51
2022-08-20T13:39:39.593Z,60.51
2022-08-20T13:40:39.680Z,59.22
2022-08-20T13:41:40.550Z,58.63
2022-08-20T13:42:39.643Z,59.03
2022-08-20T13:43:39.494Z,59.39
2022-08-20T13:44:39.524Z,56.92
2022-08-20T13:45:39.834Z,57.31
2022-08-20T13:46:39.475Z,57.68
2022-08-20T13:47:39.482Z,56.76
2022-08-20T13:48:39.475Z,56.37
2022-08-20T13:50:13.968Z,55.28
2022-08-20T13:50:39.613Z,55.38
2022-08-20T13:51:39.619Z,57.23
2022-08-20T13:52:39.469Z,56.44
2022-08-20T13:53:39.461Z,55.52
2022-08-20T13:54:39.385Z,54.44
2022-08-20T13:55:39.430Z,55.00
2022-08-20T13:56:39.559Z,54.80
2022-08-20T13:57:39.408Z,54.02
2022-08-20T13:58:39.384Z,55.07
2022-08-20T13:59:39.388Z,54.61
2022-08-20T14:00:39.302Z,54.34
2022-08-20T14:01:39.518Z,54.36
2022-08-20T14:02:39.271Z,55.13
2022-08-20T14:03:39.426Z,54.63
2022-08-20T14:04:39.305Z,54.63
2022-08-20T14:05:39.372Z,53.92
2022-08-20T14:06:39.280Z,54.09
2022-08-20T14:07:39.293Z,52.58
2022-08-20T14:08:39.217Z,51.87
2022-08-20T14:09:39.231Z,50.95
2022-08-20T14:10:39.349Z,48.96
2022-08-20T14:11:39.232Z,48.74
2022-08-20T14:12:39.209Z,47.41
2022-08-20T14:13:39.167Z,46.01
2022-08-20T14:14:40.108Z,45.20
2022-08-20T14:15:39.200Z,43.53
2022-08-20T14:16:39.164Z,42.11
2022-08-20T14:17:39.142Z,41.31
2022-08-20T14:18:39.213Z,40.90
2022-08-20T14:19:39.172Z,39.23
2022-08-20T14:20:39.148Z,38.70
2022-08-20T14:21:39.177Z,38.88
2022-08-20T14:22:39.110Z,38.28
2022-08-20T14:23:39.146Z,38.06
2022-08-20T14:24:39.080Z,38.32
2022-08-20T14:25:39.135Z,37.40
2022-08-20T14:26:39.082Z,36.72
2022-08-20T14:27:39.168Z,37.11
2022-08-20T14:28:39.130Z,37.50
2022-08-20T14:29:39.023Z,36.90
2022-08-20T14:30:39.040Z,37.09
2022-08-20T14:31:39.074Z,36.70
2022-08-20T14:32:38.978Z,37.77
2022-08-20T14:33:43.936Z,38.59
2022-08-20T14:34:41.004Z,38.61
2022-08-20T14:35:39.185Z,39.02
2022-08-20T14:36:38.982Z,39.02
2022-08-20T14:37:38.994Z,39.43
2022-08-20T14:38:38.947Z,38.82
2022-08-20T14:39:39.023Z,39.29
2022-08-20T14:41:12.549Z,39.29
2022-08-20T14:41:39.187Z,39.28
2022-08-20T14:42:39.165Z,38.89
2022-08-20T14:44:11.617Z,39.78
2022-08-20T14:44:40.236Z,39.70
2022-08-20T14:46:13.912Z,39.61
2022-08-20T14:46:39.197Z,39.31
2022-08-20T14:48:11.544Z,39.10
2022-08-20T14:51:20.137Z,39.49
2022-08-20T14:52:29.300Z,39.61
2022-08-20T14:53:20.115Z,38.82
2022-08-20T14:54:19.981Z,40.00
2022-08-20T14:55:20.020Z,39.08
2022-08-20T14:56:27.896Z,38.98
2022-08-20T14:57:20.175Z,39.65
2022-08-20T14:58:28.773Z,40.66
2022-08-20T14:59:29.897Z,40.29
2022-08-20T15:00:21.269Z,40.97
2022-08-20T15:01:56.248Z,42.35
2022-08-20T15:02:54.148Z,44.08
2022-08-20T15:07:10.892Z,46.99
2022-08-20T15:09:27.451Z,47.03
2022-08-20T15:13:11.637Z,44.93
2022-08-20T15:15:58.898Z,46.84
2022-08-20T15:19:19.163Z,49.20
2022-08-20T15:22:37.277Z,45.60
2022-08-20T15:27:23.435Z,43.13
2022-08-20T15:30:37.038Z,46.57
2022-08-20T15:31:45.524Z,47.60
2022-08-20T15:34:28.965Z,44.16
2022-08-20T15:35:29.043Z,42.43
2022-08-20T15:38:03.604Z,39.53
2022-08-20T15:40:50.950Z,42.82
2022-08-20T15:44:08.318Z,46.47
2022-08-20T15:46:37.520Z,47.89
2022-08-20T15:52:22.217Z,47.03
2022-08-20T15:55:17.581Z,49.15
2022-08-20T15:59:04.654Z,47.43
2022-08-20T16:00:12.503Z,47.21
2022-08-20T16:02:25.998Z,48.16
2022-08-20T16:05:16.297Z,50.83
2022-08-20T16:06:25.036Z,50.13
2022-08-20T16:07:16.309Z,50.04
2022-08-20T16:10:32.032Z,51.15
2022-08-20T16:11:32.136Z,50.29
2022-08-20T16:12:33.409Z,51.50
2022-08-20T16:14:08.300Z,51.60
2022-08-20T16:14:33.290Z,51.50
2022-08-20T16:15:33.809Z,51.47
2022-08-20T16:16:33.229Z,51.60
2022-08-20T16:17:33.170Z,51.20
2022-08-20T16:18:33.075Z,51.50
2022-08-20T16:19:33.056Z,50.81
2022-08-20T16:20:35.653Z,51.50
2022-08-20T16:21:33.059Z,52.19
2022-08-20T16:22:33.045Z,51.89
2022-08-20T16:23:32.993Z,52.71
2022-08-20T16:24:33.048Z,51.99
2022-08-20T16:26:09.940Z,52.71
2022-08-20T16:26:33.121Z,53.43
2022-08-20T16:27:33.132Z,52.71
2022-08-20T16:28:33.013Z,53.16
2022-08-20T16:29:33.353Z,54.17
2022-08-20T16:30:32.999Z,54.17
2022-08-20T16:31:33.099Z,53.78
2022-08-20T16:32:33.938Z,53.68
2022-08-20T16:33:32.949Z,53.78
2022-08-20T16:34:34.402Z,53.78
2022-08-20T16:35:32.945Z,54.40
2022-08-20T16:36:32.969Z,54.10
2022-08-20T16:37:32.959Z,54.43
2022-08-20T16:38:33.217Z,54.82
2022-08-20T16:39:32.965Z,55.72
2022-08-20T16:40:32.884Z,55.05
2022-08-20T16:41:32.893Z,56.04
2022-08-20T16:42:32.837Z,55.94
2022-08-20T16:43:32.834Z,55.05
2022-08-20T16:44:32.850Z,55.05
2022-08-20T16:45:33.047Z,55.35
2022-08-20T16:46:37.453Z,55.74
2022-08-20T16:47:34.862Z,55.74
2022-08-20T16:48:32.930Z,55.55